Flight Track Log - Related Links

Times and Time Zones

All times are in EDT time to prevent confusion due to time zone crossing. See the SWA232 flight status page for this flight to view local times or setup timezone preferences in your user account.

Time Position Orientation Groundspeed Altitude Reporting Facility
EDT Latitude Longitude Course Direction KTS MPH feet Rate Location/Type
Thu 06:53:35 AM 42.9500 -71.4333 324° Northwest 160 184 1,400  Level KA90
Thu 06:53:53 AM 42.9667 -71.4500 324° Northwest 159 183 2,100 2,571 Climbing KA90
Thu 06:54:59 AM 43.0167 -71.4667 346° North 202 232 5,000 2,530 Climbing KA90
Thu 06:55:16 AM 43.0319 -71.4772 333° Northwest 219 252 5,600 2,727 Climbing Boston Center
Thu 06:56:16 AM 43.1008 -71.5017 345° North 245 282 8,500 3,200 Climbing Boston Center
Thu 06:57:16 AM 43.1533 -71.5492 327° Northwest 233 268 12,000 2,550 Climbing Boston Center
Thu 06:58:16 AM 43.1625 -71.6289 279° West 196 226 13,600 1,800 Climbing Boston Center
Thu 06:59:16 AM 43.1653 -71.7456 272° West 274 315 15,600 2,100 Climbing Boston Center
Thu 07:00:16 AM 43.1681 -71.8678 272° West 315 362 17,800 2,150 Climbing Boston Center
Thu 07:01:16 AM 43.1706 -71.9847 272° West 341 392 19,900 2,300 Climbing Boston Center
Thu 07:02:16 AM 43.1731 -72.1183 272° West 351 404 22,400 2,150 Climbing Boston Center
Thu 07:03:16 AM 43.1756 -72.2608 271° West 361 415 24,200 1,800 Climbing Boston Center
Thu 07:04:16 AM 43.1778 -72.4089 271° West 373 429 26,000 2,100 Climbing Boston Center
Thu 07:05:16 AM 43.1778 -72.5711 270° West 392 451 28,400 2,450 Climbing Boston Center
Thu 07:06:16 AM 43.1817 -72.7133 272° West 392 451 30,900 1,900 Climbing Boston Center
Thu 07:07:16 AM 43.1811 -72.8531 270° West 379 436 32,200 1,250 Climbing Boston Center
Thu 07:08:16 AM 43.1828 -72.9925 271° West 374 430 33,400 900 Climbing Boston Center
Thu 07:09:16 AM 43.1778 -73.1347 267° West 374 430 34,000 300 Climbing Boston Center
Thu 07:10:16 AM 43.1706 -73.2714 266° West 374 430 34,000  Level Boston Center
Thu 07:11:16 AM 43.1592 -73.3908 263° West 364 419 34,000  Level Boston Center
Thu 07:12:16 AM 43.1517 -73.5300 266° West 364 419 34,000  Level Boston Center
Thu 07:13:16 AM 43.1442 -73.6667 266° West 364 419 34,000  Level Boston Center
Thu 07:14:16 AM 43.1319 -73.8200 264° West 370 426 34,000 -50 Level Boston Center
Thu 07:15:16 AM 43.1261 -73.9506 267° West 364 419 33,900  Descending Boston Center
Thu 07:16:16 AM 43.1158 -74.0869 264° West 364 419 34,000 50 Climbing Boston Center
Thu 07:17:16 AM 43.1097 -74.2206 266° West 364 419 34,000  Level Boston Center
Thu 07:18:16 AM 43.0992 -74.3594 264° West 364 419 34,000  Level Boston Center
Thu 07:19:16 AM 43.0928 -74.4900 266° West 364 419 34,000  Level Boston Center
Thu 07:20:16 AM 43.0817 -74.6261 264° West 364 419 34,000  Level Boston Center
Thu 07:21:16 AM 43.0728 -74.7681 265° West 369 425 34,000  Level Boston Center
Thu 07:22:16 AM 43.0636 -74.9069 265° West 369 425 34,000  Level Boston Center
Thu 07:23:16 AM 43.0542 -75.0486 265° West 369 425 34,000  Level Boston Center
Thu 07:24:16 AM 43.0425 -75.1931 264° West 380 437 34,000  Level Boston Center
Thu 07:25:16 AM 43.0325 -75.3347 265° West 380 437 34,000  Level Boston Center
Thu 07:26:16 AM 43.0206 -75.4789 264° West 385 443 34,000  Level Boston Center
Thu 07:27:16 AM 43.0103 -75.6261 265° West 385 443 34,000 650 Level Boston Center
Thu 07:28:16 AM 43.0000 -75.7675 264° West 385 443 35,300 1,000 Climbing Boston Center
Thu 07:29:16 AM 42.9894 -75.9089 264° West 385 443 36,000 253 Climbing Boston Center
Thu 07:31:02 AM 42.9692 -76.1506 264° West 381 438 36,000  Level Cleveland Center
Thu 07:32:02 AM 42.9558 -76.2936 263° West 381 438 36,000  Level Cleveland Center
Thu 07:33:02 AM 42.9464 -76.4303 265° West 381 438 36,000  Level Cleveland Center
Thu 07:34:02 AM 42.9347 -76.5758 264° West 381 438 36,000  Level Cleveland Center
Thu 07:35:02 AM 42.9208 -76.7186 262° West 381 438 36,000  Level Cleveland Center
Thu 07:36:02 AM 42.9069 -76.8639 263° West 386 444 36,000  Level Cleveland Center
Thu 07:37:02 AM 42.8947 -77.0064 263° West 391 450 36,000  Level Cleveland Center
Thu 07:38:02 AM 42.8614 -77.1444 252° West 386 444 36,000  Level Cleveland Center
Thu 07:39:02 AM 42.8192 -77.2711 246° West 381 438 36,000  Level Cleveland Center
Thu 07:40:02 AM 42.7750 -77.4036 246° West 381 438 36,000  Level Cleveland Center
Thu 07:41:02 AM 42.7325 -77.5331 246° West 381 438 36,000  Level Cleveland Center
Thu 07:42:02 AM 42.6900 -77.6594 245° Southwest 387 445 36,000  Level Cleveland Center
Thu 07:43:02 AM 42.6472 -77.7886 246° West 374 430 36,000  Level Cleveland Center
Thu 07:44:02 AM 42.6006 -77.9289 246° West 367 422 36,000  Level Cleveland Center
Thu 07:45:02 AM 42.5556 -78.0575 245° Southwest 367 422 36,000  Level Cleveland Center
Thu 07:46:02 AM 42.5125 -78.1861 246° West 372 428 36,000  Level Cleveland Center
Thu 07:47:02 AM 42.4711 -78.3114 246° West 372 428 36,000  Level Cleveland Center
Thu 07:48:02 AM 42.4278 -78.4397 245° Southwest 372 428 36,000  Level Cleveland Center
Thu 07:49:02 AM 42.3822 -78.5678 244° Southwest 372 428 36,000  Level Cleveland Center
Thu 07:50:02 AM 42.3386 -78.6983 246° West 377 434 36,000  Level Cleveland Center
Thu 07:51:02 AM 42.2947 -78.8258 245° Southwest 377 434 36,000  Level Cleveland Center
Thu 07:52:02 AM 42.2486 -78.9506 243° Southwest 382 440 36,000  Level Cleveland Center
Thu 07:53:02 AM 42.2044 -79.0781 245° Southwest 382 440 36,000  Level Cleveland Center
Thu 07:54:02 AM 42.1686 -79.2019 249° West 382 440 36,000  Level Cleveland Center
Thu 07:55:02 AM 42.1344 -79.3344 251° West 377 434 36,000  Level Cleveland Center
Thu 07:56:02 AM 42.1006 -79.4639 251° West 371 427 36,000  Level Cleveland Center
Thu 07:57:02 AM 42.0683 -79.5903 251° West 371 427 36,000  Level Cleveland Center
Thu 07:58:02 AM 42.0358 -79.7164 251° West 365 420 36,000  Level Cleveland Center
Thu 07:59:02 AM 41.9992 -79.8456 249° West 365 420 36,000  Level Cleveland Center
Thu 08:00:02 AM 41.9667 -79.9744 251° West 371 427 36,000  Level Cleveland Center
Thu 08:01:02 AM 41.9319 -80.1003 250° West 366 421 36,000  Level Cleveland Center
Thu 08:02:02 AM 41.8969 -80.2289 250° West 366 421 36,000  Level Cleveland Center
Thu 08:03:02 AM 41.8617 -80.3600 250° West 366 421 36,000  Level Cleveland Center
Thu 08:04:02 AM 41.8286 -80.4856 251° West 371 427 36,000  Level Cleveland Center
Thu 08:05:02 AM 41.7933 -80.6194 251° West 371 427 36,000  Level Cleveland Center
Thu 08:06:02 AM 41.7556 -80.7475 248° West 371 427 36,000  Level Cleveland Center
Thu 08:07:02 AM 41.7242 -80.8697 251° West 365 420 36,000  Level Cleveland Center
Thu 08:08:02 AM 41.6944 -80.9781 250° West 358 412 36,000  Level Cleveland Center
Thu 08:09:02 AM 41.6608 -81.0944 249° West 348 400 36,000  Level Cleveland Center
Thu 08:10:02 AM 41.6267 -81.2164 249° West 353 406 36,000  Level Cleveland Center
Thu 08:11:02 AM 41.5928 -81.3328 249° West 348 400 36,000  Level Cleveland Center
Thu 08:12:02 AM 41.5606 -81.4544 251° West 348 400 36,000  Level Cleveland Center
Thu 08:13:02 AM 41.5264 -81.5733 249° West 348 400 36,000  Level Cleveland Center
Thu 08:14:02 AM 41.4917 -81.6947 249° West 348 400 36,000  Level Cleveland Center
Thu 08:15:02 AM 41.4572 -81.8161 249° West 348 400 36,000  Level Cleveland Center
Thu 08:16:02 AM 41.4244 -81.9372 250° West 348 400 36,000  Level Cleveland Center
Thu 08:17:02 AM 41.4269 -82.0758 271° West 358 412 36,000  Level Cleveland Center
Thu 08:18:02 AM 41.4314 -82.2117 273° West 368 423 36,000  Level Cleveland Center
Thu 08:19:02 AM 41.4356 -82.3531 272° West 379 436 36,000  Level Cleveland Center
Thu 08:20:02 AM 41.4392 -82.5083 272° West 384 442 36,000  Level Cleveland Center
Thu 08:21:02 AM 41.4431 -82.6497 272° West 384 442 36,000  Level Cleveland Center
Thu 08:22:02 AM 41.4467 -82.7883 272° West 384 442 36,000  Level Cleveland Center
Thu 08:23:02 AM 41.4503 -82.9269 272° West 384 442 36,000  Level Cleveland Center
Thu 08:24:02 AM 41.4536 -83.0683 272° West 384 442 36,000  Level Cleveland Center
Thu 08:25:02 AM 41.4567 -83.2069 272° West 384 442 36,000  Level Cleveland Center
Thu 08:26:02 AM 41.4594 -83.3483 272° West 384 442 36,000  Level Cleveland Center
Thu 08:27:02 AM 41.4603 -83.4869 271° West 384 442 36,000  Level Cleveland Center
Thu 08:28:02 AM 41.4650 -83.6286 273° West 384 442 36,000  Level Cleveland Center
Thu 08:29:02 AM 41.4675 -83.7700 271° West 384 442 36,000  Level Cleveland Center
Thu 08:30:02 AM 41.4675 -83.9114 270° West 384 442 36,000  Level Cleveland Center
Thu 08:31:02 AM 41.4717 -84.0531 272° West 384 442 36,000  Level Cleveland Center
Thu 08:32:02 AM 41.4714 -84.1917 270° West 384 442 36,000 -464 Level Cleveland Center
Thu 08:34:03 AM 41.4792 -84.4542 272° West 377 434 34,600 -1,639 Descending Chicago Center
Thu 08:35:05 AM 41.4797 -84.5947 270° West 379 436 31,000 -2,226 Descending Chicago Center
Thu 08:36:07 AM 41.4836 -84.7350 272° West 378 435 30,000 -488 Descending Chicago Center
Thu 08:37:08 AM 41.4906 -84.9039 273° West 380 437 30,000  Level Chicago Center
Thu 08:38:10 AM 41.4956 -85.0458 273° West 383 441 30,000 -435 Level Chicago Center
Thu 08:39:12 AM 41.4997 -85.1881 272° West 383 441 29,100 -1,694 Descending Chicago Center
Thu 08:40:14 AM 41.5047 -85.3281 273° West 377 434 26,500 -2,419 Descending Chicago Center
Thu 08:41:16 AM 41.5092 -85.4628 273° West 361 415 24,100 -1,694 Descending Chicago Center
Thu 08:42:18 AM 41.5122 -85.5861 272° West 330 380 23,000 -1,073 Descending Chicago Center
Thu 08:43:19 AM 41.5161 -85.7028 273° West 315 362 21,900 -1,024 Descending Chicago Center
Thu 08:44:21 AM 41.5189 -85.8192 272° West 313 360 20,900 -1,306 Descending Chicago Center
Thu 08:45:23 AM 41.5222 -85.9317 272° West 308 354 19,200 -1,887 Descending Chicago Center
Thu 08:46:25 AM 41.5250 -86.0581 272° West 290 334 17,000 -1,984 Descending Chicago Center
Thu 08:47:27 AM 41.5239 -86.1606 269° West 281 323 15,100 -1,790 Descending Chicago Center
Thu 08:48:29 AM 41.5233 -86.2625 270° West 276 318 13,300 -1,756 Descending Chicago Center
Thu 08:49:30 AM 41.5231 -86.3606 270° West 268 308 11,500 -1,317 Descending Chicago Center
Thu 08:50:32 AM 41.5225 -86.4564 270° West 262 302 10,600 -726 Descending Chicago Center
Thu 08:51:34 AM 41.5217 -86.5406 269° West 230 265 10,000 -290 Descending Chicago Center
Thu 08:52:36 AM 41.5025 -86.6092 250° West 198 228 10,000  Level Chicago Center
Thu 08:53:38 AM 41.4761 -86.6883 246° West 195 224 10,000  Level Chicago Center
Thu 08:54:39 AM 41.4369 -86.7392 224° Southwest 198 228 10,000 -439 Level Chicago Center
Thu 08:55:41 AM 41.4061 -86.7967 234° Southwest 197 227 9,100 -968 Descending Chicago Center
Thu 08:56:43 AM 41.4292 -86.8658 294° West 206 237 8,000 -1,016 Descending Chicago Center
Thu 08:57:45 AM 41.4492 -86.9325 292° West 199 229 7,000 -976 Descending Chicago Center
Thu 08:58:46 AM 41.4731 -87.0136 291° West 197 227 6,000 -488 Descending Chicago Center
Thu 08:59:48 AM 41.4931 -87.0797 292° West 194 223 6,000  Level Chicago Center
Thu 09:00:50 AM 41.5131 -87.1467 292° West 194 223 6,000 62 Level Chicago Center
Thu 09:01:25 AM 41.5167 -87.2000 275° West 194 223 6,100 63 Climbing Chicago TRACON
Thu 09:02:25 AM 41.5167 -87.2667 270° West 193 222 6,100 -400 Level Chicago TRACON
Thu 09:03:25 AM 41.5333 -87.3333 288° West 197 227 5,300 -850 Descending Chicago TRACON
Thu 09:04:25 AM 41.5333 -87.4000 270° West 193 222 4,400 -848 Descending Chicago TRACON
Thu 09:04:57 AM 41.5561 -87.4344 311° West 197 227 4,000 -255 Descending Chicago Center
Thu 09:05:59 AM 41.5942 -87.4858 315° West 196 226 4,000 49 Level Chicago Center
Thu 09:07:00 AM 41.6319 -87.5378 314° West 197 227 4,100  Climbing Chicago Center
Thu 09:08:02 AM 41.6681 -87.5889 313° West 194 223 4,000 -532 Descending Chicago Center
Thu 09:09:04 AM 41.7036 -87.6383 314° West 191 220 3,000 -1,084 Descending Chicago Center
Thu 09:09:25 AM 41.7167 -87.6500 326° Northwest 145 167 2,500 -889 Descending Chicago TRACON
Thu 09:10:25 AM 41.7333 -87.6833 304° West 127 146 1,800 -694 Descending Chicago TRACON
Thu 09:11:26 AM 41.7667 -87.7333 312° West 130 150 1,100 -689 Descending Chicago TRACON

Login

Don't have an account? Register now (free) for customized features, flight alerts, and more!